Time;durP1;ratioP1;P1;durP2;ratioP2;P2;SDS_P1;SDS_P2;PMS_P1;PMS_P2;Temp;Humidity;BMP_temperature;BMP_pressure;BME280_temperature;BME280_humidity;BME280_pressure;Samples;Min_cycle;Max_cycle;Signal;HPM_P1;HPM_P2
2021/05/14 00:00:27;;;;;;;12.10;7.67;;;;;;;14.43;100.00;100663.97;5072624;28;20798;-74
2021/05/14 00:02:53;;;;;;;9.47;7.63;;;;;;;14.47;100.00;100671.66;5071343;28;20924;-72
2021/05/14 00:05:20;;;;;;;9.10;8.00;;;;;;;14.31;100.00;100672.06;5071913;28;20421;-73
2021/05/14 00:07:45;;;;;;;11.33;8.87;;;;;;;14.39;100.00;100677.56;5072727;28;20687;-72
2021/05/14 00:10:12;;;;;;;12.23;9.23;;;;;;;14.38;100.00;100678.53;5071588;28;20896;-75
2021/05/14 00:12:38;;;;;;;12.73;9.17;;;;;;;14.40;100.00;100661.56;5071557;28;20191;-74
2021/05/14 00:15:05;;;;;;;14.17;9.50;;;;;;;14.35;100.00;100666.38;5070208;28;20442;-71
2021/05/14 00:17:31;;;;;;;12.00;9.83;;;;;;;14.24;100.00;100669.09;5072685;28;20399;-72
2021/05/14 00:19:56;;;;;;;15.47;11.57;;;;;;;14.18;100.00;100671.41;5072707;28;20527;-72
2021/05/14 00:22:22;;;;;;;13.13;11.07;;;;;;;14.10;100.00;100664.13;5072636;28;20169;-76
2021/05/14 00:24:48;;;;;;;13.60;11.23;;;;;;;14.18;100.00;100659.03;5072368;28;20228;-78
2021/05/14 00:27:14;;;;;;;13.70;10.37;;;;;;;14.13;100.00;100661.22;5072067;28;20290;-75
2021/05/14 00:29:40;;;;;;;13.40;10.97;;;;;;;14.08;100.00;100664.25;5072067;28;20156;-70
2021/05/14 00:32:06;;;;;;;12.30;9.40;;;;;;;14.04;100.00;100667.25;5072197;28;20468;-75
2021/05/14 00:34:31;;;;;;;12.27;9.07;;;;;;;14.02;100.00;100664.75;5071377;28;20466;-71
2021/05/14 00:36:57;;;;;;;10.90;7.60;;;;;;;14.05;100.00;100668.94;5072616;28;20454;-72
2021/05/14 00:39:24;;;;;;;11.80;7.73;;;;;;;14.05;100.00;100664.50;5071577;28;20239;-72
2021/05/14 00:41:49;;;;;;;9.23;8.10;;;;;;;14.03;100.00;100669.06;5072240;28;20153;-73
2021/05/14 00:44:36;;;;;;;13.63;8.93;;;;;;;14.04;100.00;100672.53;5071811;28;20391;-73
2021/05/14 00:47:07;;;;;;;11.90;7.93;;;;;;;14.04;100.00;100683.94;5071941;28;20626;-76
2021/05/14 00:49:33;;;;;;;12.63;9.37;;;;;;;13.95;100.00;100681.22;5070690;28;20403;-72
2021/05/14 00:52:00;;;;;;;9.40;7.63;;;;;;;13.94;100.00;100676.91;5071370;28;20423;-72
2021/05/14 00:54:28;;;;;;;7.70;6.90;;;;;;;14.04;100.00;100681.31;5072083;28;20414;-75
2021/05/14 00:56:54;;;;;;;8.80;7.37;;;;;;;14.07;100.00;100678.44;5071891;28;20482;-73
2021/05/14 00:59:20;;;;;;;10.83;9.37;;;;;;;14.07;100.00;100689.00;5071670;28;20547;-74
2021/05/14 01:01:46;;;;;;;12.23;9.57;;;;;;;13.99;100.00;100685.31;5070622;28;20498;-75
2021/05/14 01:04:12;;;;;;;16.20;10.80;;;;;;;14.00;100.00;100685.19;5071771;28;20528;-72
2021/05/14 01:06:38;;;;;;;14.47;11.30;;;;;;;14.02;100.00;100677.97;5071932;28;20808;-72
2021/05/14 01:09:04;;;;;;;18.93;12.83;;;;;;;14.14;100.00;100674.31;5071705;28;20232;-72
2021/05/14 01:11:29;;;;;;;14.63;11.40;;;;;;;14.12;100.00;100664.81;5071614;28;20183;-72
2021/05/14 01:13:57;;;;;;;15.87;12.57;;;;;;;14.12;100.00;100667.47;5071698;28;20395;-77
2021/05/14 01:16:26;;;;;;;20.70;12.73;;;;;;;14.01;100.00;100662.25;5070617;28;20257;-77
2021/05/14 01:18:53;;;;;;;16.90;13.43;;;;;;;14.05;100.00;100647.78;5071816;28;20391;-71
2021/05/14 01:21:18;;;;;;;20.67;13.10;;;;;;;14.03;100.00;100650.56;5071168;28;20830;-72
2021/05/14 01:23:44;;;;;;;18.30;12.73;;;;;;;14.02;100.00;100633.03;5070891;28;20960;-70
2021/05/14 01:26:14;;;;;;;16.70;13.63;;;;;;;14.05;100.00;100632.78;5071376;28;20152;-74
2021/05/14 01:28:41;;;;;;;17.97;12.60;;;;;;;13.99;100.00;100635.97;5071157;28;20619;-71
2021/05/14 01:31:07;;;;;;;18.60;13.90;;;;;;;13.90;100.00;100641.97;5070811;28;20407;-73
2021/05/14 01:33:34;;;;;;;15.83;11.50;;;;;;;13.85;100.00;100650.28;5071036;28;20468;-76
2021/05/14 01:36:00;;;;;;;17.20;12.00;;;;;;;13.91;100.00;100641.03;5070721;28;20442;-72
2021/05/14 01:38:26;;;;;;;18.70;12.23;;;;;;;13.87;100.00;100636.97;5070928;28;20455;-72
2021/05/14 01:40:52;;;;;;;15.37;12.60;;;;;;;13.74;100.00;100633.63;5071869;28;20425;-71
2021/05/14 01:43:18;;;;;;;17.60;13.00;;;;;;;13.72;100.00;100627.66;5071750;28;20160;-73
2021/05/14 01:45:44;;;;;;;17.13;12.03;;;;;;;13.72;100.00;100625.00;5071696;28;20383;-72
2021/05/14 01:48:10;;;;;;;15.37;12.60;;;;;;;13.69;100.00;100631.38;5070749;28;20437;-72
2021/05/14 01:50:35;;;;;;;23.40;13.33;;;;;;;13.60;100.00;100634.75;5071244;28;20172;-73
2021/05/14 01:53:01;;;;;;;18.33;12.87;;;;;;;13.52;100.00;100645.94;5071877;28;20440;-73
2021/05/14 01:55:26;;;;;;;15.90;12.50;;;;;;;13.33;100.00;100643.13;5071203;28;20246;-72
2021/05/14 01:57:52;;;;;;;21.37;14.30;;;;;;;13.31;100.00;100637.13;5071508;28;20163;-73
2021/05/14 02:00:18;;;;;;;18.33;14.20;;;;;;;13.22;100.00;100648.38;5071225;28;20525;-77
2021/05/14 02:02:44;;;;;;;18.00;13.93;;;;;;;13.19;100.00;100645.97;5070680;28;20248;-77
2021/05/14 02:05:10;;;;;;;17.77;14.73;;;;;;;13.17;100.00;100650.53;5070964;28;20423;-77
2021/05/14 02:07:37;;;;;;;20.67;14.87;;;;;;;13.16;100.00;100648.88;5071415;28;20184;-74
2021/05/14 02:10:04;;;;;;;20.60;15.13;;;;;;;13.23;100.00;100656.22;5071326;28;20893;-77
2021/05/14 02:12:29;;;;;;;23.07;17.60;;;;;;;13.09;100.00;100659.06;5071542;28;20414;-77
2021/05/14 02:14:55;;;;;;;23.53;15.50;;;;;;;13.13;100.00;100657.84;5070879;28;20490;-76
2021/05/14 02:17:21;;;;;;;21.07;16.00;;;;;;;13.04;100.00;100662.03;5071378;28;20243;-75
2021/05/14 02:19:46;;;;;;;20.47;15.20;;;;;;;12.98;100.00;100662.53;5070610;28;20160;-71
2021/05/14 02:22:12;;;;;;;19.20;14.43;;;;;;;13.05;100.00;100676.91;5071216;28;20179;-71
2021/05/14 02:24:37;;;;;;;19.03;14.97;;;;;;;13.09;100.00;100684.59;5071036;28;20191;-73
2021/05/14 02:27:04;;;;;;;16.60;12.87;;;;;;;13.05;100.00;100683.97;5071152;28;20676;-75
2021/05/14 02:29:33;;;;;;;18.87;13.73;;;;;;;13.00;100.00;100689.63;5071446;28;20157;-72
2021/05/14 02:32:00;;;;;;;22.57;14.47;;;;;;;13.04;100.00;100696.34;5070420;28;20464;-72
2021/05/14 02:34:25;;;;;;;21.43;15.93;;;;;;;12.97;100.00;100699.56;5070398;28;20439;-71
2021/05/14 02:36:51;;;;;;;23.00;17.43;;;;;;;13.06;100.00;100702.31;5073362;28;20839;-72
2021/05/14 02:39:16;;;;;;;21.03;17.30;;;;;;;13.01;100.00;100698.38;5075451;28;20289;-71
2021/05/14 02:41:42;;;;;;;23.90;19.10;;;;;;;13.04;100.00;100698.97;5075206;28;20172;-77
2021/05/14 02:44:07;;;;;;;25.70;19.33;;;;;;;12.99;100.00;100690.56;5075317;28;20165;-73
2021/05/14 02:46:34;;;;;;;26.73;19.30;;;;;;;13.04;100.00;100695.50;5075067;28;20251;-75
2021/05/14 02:49:00;;;;;;;25.00;19.93;;;;;;;13.01;100.00;100704.50;5075143;28;20241;-74
2021/05/14 02:51:25;;;;;;;27.83;18.53;;;;;;;12.87;100.00;100699.44;5074851;28;20418;-72
2021/05/14 02:53:51;;;;;;;24.40;18.67;;;;;;;12.91;100.00;100692.97;5075165;28;20239;-74
2021/05/14 02:56:18;;;;;;;26.23;19.90;;;;;;;12.87;100.00;100702.09;5075331;28;20195;-73
2021/05/14 02:58:43;;;;;;;23.17;17.97;;;;;;;12.94;100.00;100708.56;5074640;28;20418;-72
2021/05/14 03:01:09;;;;;;;25.03;18.77;;;;;;;12.92;100.00;100707.84;5074227;28;20421;-72
2021/05/14 03:03:35;;;;;;;32.73;19.10;;;;;;;12.92;100.00;100707.84;5073476;28;20187;-73
2021/05/14 03:06:00;;;;;;;28.17;20.30;;;;;;;12.94;100.00;100713.84;5067158;28;20294;-70
2021/05/14 03:08:25;;;;;;;31.50;23.30;;;;;;;12.92;100.00;100721.03;5068777;28;20175;-70
2021/05/14 03:10:51;;;;;;;33.40;23.10;;;;;;;12.87;100.00;100717.91;5064735;28;20209;-72
2021/05/14 03:13:16;;;;;;;34.87;24.23;;;;;;;12.90;100.00;100722.94;5067302;28;20596;-75
2021/05/14 03:15:42;;;;;;;32.10;22.70;;;;;;;13.03;100.00;100720.19;5064867;28;20206;-71
2021/05/14 03:18:07;;;;;;;31.87;22.50;;;;;;;13.01;100.00;100715.06;5066031;28;20176;-75
2021/05/14 03:20:33;;;;;;;32.33;22.70;;;;;;;12.96;100.00;100711.09;5070102;28;20172;-72
2021/05/14 03:22:59;;;;;;;39.50;24.90;;;;;;;12.95;100.00;100712.88;5074580;28;20171;-71
2021/05/14 03:25:24;;;;;;;37.80;24.87;;;;;;;13.08;100.00;100712.78;5074684;28;20218;-74
2021/05/14 03:27:50;;;;;;;42.70;27.30;;;;;;;13.03;100.00;100705.22;5071359;28;20176;-74
2021/05/14 03:30:16;;;;;;;34.40;25.10;;;;;;;13.19;100.00;100715.41;5067194;28;20170;-74
2021/05/14 03:32:41;;;;;;;38.97;24.97;;;;;;;13.22;100.00;100717.00;5065084;28;20568;-76
2021/05/14 03:35:07;;;;;;;36.30;24.70;;;;;;;13.34;100.00;100708.13;5065628;28;20164;-74
2021/05/14 03:37:33;;;;;;;37.60;25.93;;;;;;;13.35;100.00;100704.50;5066612;28;20218;-71
2021/05/14 03:40:03;;;;;;;32.43;24.20;;;;;;;13.32;100.00;100717.97;5068598;28;20513;-76
2021/05/14 03:42:29;;;;;;;35.23;25.00;;;;;;;13.27;100.00;100715.69;5064698;28;20259;-72
2021/05/14 03:44:56;;;;;;;34.03;23.40;;;;;;;13.40;100.00;100725.28;5065966;28;20429;-70
2021/05/14 03:47:25;;;;;;;32.10;23.00;;;;;;;13.39;100.00;100723.59;5065091;28;20164;-71
2021/05/14 03:49:51;;;;;;;33.20;20.90;;;;;;;13.35;100.00;100728.28;5068535;28;20491;-71
2021/05/14 03:52:17;;;;;;;34.23;21.07;;;;;;;13.40;100.00;100731.41;5064923;28;20900;-74
2021/05/14 03:54:43;;;;;;;30.90;22.37;;;;;;;13.46;100.00;100738.00;5062596;28;20205;-71
2021/05/14 03:57:08;;;;;;;32.37;20.97;;;;;;;13.50;100.00;100737.63;5070221;28;20201;-75
2021/05/14 03:59:35;;;;;;;30.80;23.13;;;;;;;13.51;100.00;100738.44;5065824;28;20429;-69
2021/05/14 04:02:01;;;;;;;32.57;23.43;;;;;;;13.54;100.00;100743.50;5067892;28;20179;-74
2021/05/14 04:04:26;;;;;;;31.60;23.40;;;;;;;13.51;100.00;100746.38;5061440;28;20422;-73
2021/05/14 04:06:52;;;;;;;39.00;23.57;;;;;;;13.60;100.00;100743.88;5073534;28;20165;-76
2021/05/14 04:09:25;;;;;;;30.43;22.20;;;;;;;13.61;100.00;100752.63;5062904;28;20172;-75
2021/05/14 04:14:35;;;;;;;33.33;23.47;;;;;;;13.51;100.00;100755.13;5053193;28;20430;-73
2021/05/14 04:17:02;;;;;;;33.67;22.47;;;;;;;13.50;100.00;100753.44;5052528;28;20450;-70
2021/05/14 04:19:28;;;;;;;36.33;27.10;;;;;;;13.50;100.00;100749.97;5070972;28;20176;-75
2021/05/14 04:21:55;;;;;;;39.67;27.20;;;;;;;13.57;100.00;100751.16;5073110;28;20490;-75
2021/05/14 04:24:22;;;;;;;41.63;28.70;;;;;;;13.63;100.00;100748.06;5072382;28;20204;-72
2021/05/14 04:26:52;;;;;;;52.63;31.70;;;;;;;13.72;100.00;100749.13;5073322;28;20442;-74
2021/05/14 04:29:18;;;;;;;48.53;34.87;;;;;;;13.83;100.00;100743.84;5072956;28;20387;-76
2021/05/14 04:31:46;;;;;;;52.97;36.87;;;;;;;13.98;100.00;100753.16;5072859;28;20405;-75
2021/05/14 04:34:12;;;;;;;47.97;35.60;;;;;;;14.14;100.00;100755.41;5073090;28;20957;-74
2021/05/14 04:36:38;;;;;;;54.53;32.13;;;;;;;14.23;100.00;100751.16;5069718;28;20497;-73
2021/05/14 04:39:06;;;;;;;53.70;36.80;;;;;;;14.34;100.00;100754.56;5071285;28;20462;-79
2021/05/14 04:41:33;;;;;;;51.90;35.77;;;;;;;14.42;100.00;100756.59;5071872;28;20446;-76
2021/05/14 04:43:58;;;;;;;50.93;33.37;;;;;;;14.44;100.00;100750.22;5069900;28;20435;-76
2021/05/14 04:46:24;;;;;;;52.63;36.37;;;;;;;14.48;100.00;100763.22;5068794;28;20419;-73
2021/05/14 04:48:49;;;;;;;44.60;32.90;;;;;;;14.60;100.00;100759.56;5071144;28;20201;-72
2021/05/14 04:51:15;;;;;;;46.00;32.47;;;;;;;14.73;100.00;100759.34;5067322;28;20296;-77
2021/05/14 04:53:42;;;;;;;47.40;30.33;;;;;;;14.82;100.00;100755.97;5069491;28;20255;-77
2021/05/14 04:56:08;;;;;;;35.83;27.30;;;;;;;15.00;100.00;100770.28;5070141;28;20199;-76
2021/05/14 04:58:33;;;;;;;40.00;27.90;;;;;;;15.09;100.00;100766.84;5062101;28;20809;-73
2021/05/14 05:00:59;;;;;;;36.27;27.80;;;;;;;15.08;100.00;100767.81;5058217;28;20940;-78
2021/05/14 05:03:25;;;;;;;40.10;27.90;;;;;;;15.13;100.00;100767.44;5072097;28;20173;-71
2021/05/14 05:05:51;;;;;;;43.80;28.63;;;;;;;15.11;100.00;100767.53;5065402;28;20176;-74
2021/05/14 05:08:17;;;;;;;31.90;25.70;;;;;;;15.14;100.00;100777.03;5072285;28;20397;-77
2021/05/14 05:10:43;;;;;;;30.67;23.87;;;;;;;15.28;100.00;100774.06;5069302;28;20172;-77
2021/05/14 05:13:08;;;;;;;37.03;27.23;;;;;;;15.36;100.00;100773.38;5068699;28;20473;-75
2021/05/14 05:15:34;;;;;;;41.60;28.80;;;;;;;15.34;100.00;100772.66;5070921;28;20199;-77
2021/05/14 05:17:59;;;;;;;40.70;28.90;;;;;;;15.38;100.00;100776.72;5070524;28;20595;-77
2021/05/14 05:20:25;;;;;;;33.83;25.47;;;;;;;15.40;100.00;100780.09;5070149;28;20168;-77
2021/05/14 05:22:50;;;;;;;33.40;24.30;;;;;;;15.36;100.00;100774.22;5070665;28;20187;-76
2021/05/14 05:25:17;;;;;;;32.03;23.20;;;;;;;15.38;100.00;100777.56;5071970;28;20176;-75
2021/05/14 05:27:42;;;;;;;41.57;22.03;;;;;;;15.48;100.00;100775.78;5067669;28;21738;-71
2021/05/14 05:30:08;;;;;;;30.43;20.20;;;;;;;15.64;100.00;100780.66;5069042;28;20993;-78
2021/05/14 05:32:34;;;;;;;28.33;18.07;;;;;;;15.76;100.00;100771.63;5070626;28;20213;-73
2021/05/14 05:35:00;;;;;;;25.40;17.37;;;;;;;15.76;100.00;100760.19;5070262;28;20423;-71
2021/05/14 05:37:25;;;;;;;22.63;17.73;;;;;;;15.73;100.00;100765.75;5064482;28;20302;-77
2021/05/14 05:39:51;;;;;;;20.23;17.03;;;;;;;15.78;100.00;100779.41;5069456;28;20559;-79
2021/05/14 05:42:16;;;;;;;23.73;18.40;;;;;;;15.98;100.00;100783.81;5068851;28;20530;-73
2021/05/14 05:44:42;;;;;;;22.00;15.27;;;;;;;16.21;100.00;100775.63;5069047;28;20171;-78
2021/05/14 05:47:08;;;;;;;25.57;17.60;;;;;;;16.60;100.00;100776.44;5070243;28;20592;-75
2021/05/14 05:49:33;;;;;;;21.53;16.30;;;;;;;16.70;100.00;100764.06;5068910;28;20164;-76
2021/05/14 05:51:59;;;;;;;26.20;16.17;;;;;;;16.81;100.00;100761.25;5070125;28;20176;-79
2021/05/14 05:54:24;;;;;;;21.03;17.67;;;;;;;17.00;100.00;100760.34;5068135;28;20183;-77
2021/05/14 05:56:50;;;;;;;20.07;14.60;;;;;;;17.29;100.00;100764.75;5069443;28;20325;-72
2021/05/14 05:59:19;;;;;;;22.50;15.87;;;;;;;17.45;100.00;100764.97;5069684;28;20168;-75
2021/05/14 06:01:45;;;;;;;16.87;12.50;;;;;;;17.62;100.00;100763.38;5064072;28;20658;-74
2021/05/14 06:04:12;;;;;;;20.80;16.90;;;;;;;17.68;100.00;100757.44;5057248;28;20460;-76
2021/05/14 06:06:37;;;;;;;21.03;15.17;;;;;;;17.90;100.00;100765.03;5060661;28;20168;-71
2021/05/14 06:09:03;;;;;;;25.20;15.20;;;;;;;17.87;100.00;100772.50;5069079;28;20479;-72
2021/05/14 06:11:29;;;;;;;19.90;14.50;;;;;;;17.98;100.00;100764.28;5069355;28;20200;-73
2021/05/14 06:13:54;;;;;;;18.83;12.53;;;;;;;17.99;100.00;100769.50;5069112;28;20186;-76
2021/05/14 06:16:20;;;;;;;17.07;13.90;;;;;;;18.10;100.00;100759.63;5069967;28;20262;-70
2021/05/14 06:18:53;;;;;;;14.77;12.20;;;;;;;18.33;100.00;100760.84;5071143;28;20489;-74
2021/05/14 06:21:19;;;;;;;22.40;15.93;;;;;;;18.42;100.00;100756.41;5069797;28;20310;-70
2021/05/14 06:23:44;;;;;;;17.83;13.00;;;;;;;18.43;100.00;100766.06;5068386;28;20454;-73
2021/05/14 06:26:10;;;;;;;18.43;13.43;;;;;;;18.48;100.00;100764.63;5070068;28;20256;-72
2021/05/14 06:28:36;;;;;;;14.80;11.43;;;;;;;18.59;100.00;100760.91;5068440;28;20600;-72
2021/05/14 06:31:01;;;;;;;15.50;10.33;;;;;;;18.60;100.00;100759.09;5068993;28;20195;-77
2021/05/14 06:33:27;;;;;;;16.23;12.70;;;;;;;18.74;100.00;100767.38;5069858;28;20552;-73
2021/05/14 06:35:56;;;;;;;16.40;11.27;;;;;;;18.64;100.00;100776.41;5070513;28;20237;-75
2021/05/14 06:38:22;;;;;;;14.93;11.20;;;;;;;18.45;100.00;100769.44;5065094;28;20477;-73
2021/05/14 06:40:47;;;;;;;18.17;13.07;;;;;;;18.51;100.00;100776.78;5067775;28;20427;-76
2021/05/14 06:43:13;;;;;;;16.40;10.33;;;;;;;18.56;100.00;100770.03;5068823;28;20588;-70
2021/05/14 06:45:38;;;;;;;14.30;11.03;;;;;;;18.65;100.00;100767.44;5069770;28;20168;-74
2021/05/14 06:48:06;;;;;;;14.83;10.23;;;;;;;18.74;100.00;100770.06;5069988;28;20160;-71
2021/05/14 06:50:32;;;;;;;25.17;11.00;;;;;;;18.77;100.00;100766.25;5065040;28;20188;-73
2021/05/14 06:52:58;;;;;;;18.70;11.30;;;;;;;18.81;100.00;100767.59;5062442;28;20419;-73
2021/05/14 06:55:24;;;;;;;14.77;10.63;;;;;;;18.83;100.00;100769.13;5063152;28;20450;-74
2021/05/14 06:57:50;;;;;;;17.53;10.73;;;;;;;18.98;100.00;100771.22;5062161;28;20173;-74
2021/05/14 07:00:18;;;;;;;13.77;10.80;;;;;;;18.91;100.00;100771.00;5060350;28;20430;-74
2021/05/14 07:02:48;;;;;;;12.17;10.37;;;;;;;18.95;100.00;100783.00;5062322;28;20646;-72
2021/05/14 07:05:14;;;;;;;17.77;11.93;;;;;;;18.95;100.00;100785.66;5064414;28;20885;-76
2021/05/14 07:07:44;;;;;;;16.40;10.13;;;;;;;18.94;100.00;100788.50;5063434;28;20877;-77
2021/05/14 07:10:11;;;;;;;13.30;10.47;;;;;;;18.96;100.00;100778.50;5067120;28;20955;-73
2021/05/14 07:12:37;;;;;;;12.40;9.80;;;;;;;19.10;100.00;100776.13;5062689;28;20850;-72
2021/05/14 07:15:06;;;;;;;10.90;9.07;;;;;;;19.39;100.00;100778.44;5045673;28;21011;-71
2021/05/14 07:17:32;;;;;;;9.37;7.00;;;;;;;19.58;100.00;100777.41;5060162;28;20422;-74
2021/05/14 07:19:58;;;;;;;7.40;6.10;;;;;;;19.68;100.00;100775.44;5060778;28;21021;-75
2021/05/14 07:22:24;;;;;;;6.30;5.27;;;;;;;19.68;100.00;100771.94;5061773;28;20173;-81
2021/05/14 07:24:49;;;;;;;9.50;5.43;;;;;;;19.87;100.00;100778.84;5062564;28;20542;-73
2021/05/14 07:27:18;;;;;;;14.90;5.50;;;;;;;19.93;100.00;100773.69;5065198;28;20639;-75
2021/05/14 07:29:44;;;;;;;6.60;5.20;;;;;;;19.95;100.00;100773.56;5065058;28;20358;-79
2021/05/14 07:32:12;;;;;;;6.00;4.63;;;;;;;19.91;100.00;100769.53;5065212;28;20441;-75
2021/05/14 07:34:38;;;;;;;5.00;4.40;;;;;;;19.96;100.00;100783.22;5063761;28;20430;-75
2021/05/14 07:37:05;;;;;;;7.63;5.50;;;;;;;20.16;100.00;100781.91;5065288;28;20554;-73
2021/05/14 07:39:31;;;;;;;6.60;5.00;;;;;;;20.13;100.00;100781.44;5064924;28;20591;-75
2021/05/14 07:41:56;;;;;;;7.03;5.10;;;;;;;20.18;100.00;100779.94;5065368;28;20973;-74
2021/05/14 07:44:22;;;;;;;9.33;5.63;;;;;;;20.23;100.00;100787.44;5062364;28;20520;-76
2021/05/14 07:46:49;;;;;;;9.57;6.30;;;;;;;20.34;100.00;100784.47;5064780;28;20187;-75
2021/05/14 07:49:14;;;;;;;9.33;7.83;;;;;;;20.35;100.00;100783.47;5063601;28;20203;-75
2021/05/14 07:51:41;;;;;;;10.07;7.07;;;;;;;20.43;100.00;100786.16;5067082;28;20541;-76
2021/05/14 07:54:06;;;;;;;10.73;8.23;;;;;;;20.40;100.00;100778.47;5063740;28;20634;-74
2021/05/14 07:56:32;;;;;;;11.10;8.10;;;;;;;20.43;100.00;100783.47;5063882;28;20465;-75
2021/05/14 07:58:58;;;;;;;12.23;9.10;;;;;;;20.46;100.00;100774.31;5066300;28;20694;-74
2021/05/14 08:01:23;;;;;;;12.07;9.20;;;;;;;20.53;100.00;100782.50;5072492;28;20169;-78
2021/05/14 08:04:07;;;;;;;16.37;10.50;;;;;;;20.69;100.00;100775.31;5073238;28;20180;-75
2021/05/14 08:06:36;;;;;;;10.97;9.77;;;;;;;20.75;100.00;100779.19;5066336;28;20176;-74
2021/05/14 08:09:06;;;;;;;12.80;10.00;;;;;;;20.59;100.00;100780.00;5064831;28;20472;-76
2021/05/14 08:11:32;;;;;;;22.70;10.57;;;;;;;20.55;100.00;100778.66;5061772;28;20399;-74
2021/05/14 08:13:57;;;;;;;13.00;10.47;;;;;;;20.54;100.00;100769.00;5055137;28;20411;-75
2021/05/14 08:16:23;;;;;;;11.03;9.20;;;;;;;20.57;100.00;100768.66;5072437;28;20476;-75
2021/05/14 08:18:51;;;;;;;20.30;10.10;;;;;;;20.71;100.00;100770.69;5071817;28;20305;-77
2021/05/14 08:21:21;;;;;;;21.10;16.40;;;;;;;21.01;100.00;100770.97;5073299;28;20153;-74
2021/05/14 08:23:52;;;;;;;14.33;9.87;;;;;;;21.20;100.00;100767.09;5071323;28;20856;-71
2021/05/14 08:26:21;;;;;;;13.70;10.27;;;;;;;21.48;100.00;100756.84;5073116;28;20977;-72
2021/05/14 08:28:46;;;;;;;11.97;8.70;;;;;;;21.78;100.00;100758.72;5070782;28;20486;-71
2021/05/14 08:31:13;;;;;;;11.73;9.90;;;;;;;21.81;100.00;100757.53;5070300;28;20514;-74
2021/05/14 08:33:39;;;;;;;14.33;10.03;;;;;;;21.92;100.00;100759.00;5071511;28;20168;-75
2021/05/14 08:36:08;;;;;;;14.97;9.63;;;;;;;22.11;100.00;100753.19;5068268;28;20582;-73
2021/05/14 08:38:35;;;;;;;12.13;9.40;;;;;;;22.14;100.00;100747.47;5065512;28;20474;-76
2021/05/14 08:41:08;;;;;;;11.73;9.90;;;;;;;22.30;100.00;100758.09;5069242;28;20419;-74
2021/05/14 08:43:34;;;;;;;10.67;9.00;;;;;;;22.52;100.00;100752.91;5069084;28;20802;-74
2021/05/14 08:46:03;;;;;;;10.20;8.07;;;;;;;22.43;100.00;100752.13;5070509;28;20423;-74
2021/05/14 08:48:38;;;;;;;8.70;6.40;;;;;;;22.31;100.00;100757.09;5067456;28;20416;-73
2021/05/14 08:51:09;;;;;;;13.33;9.70;;;;;;;22.42;100.00;100763.84;5064873;28;20422;-75
2021/05/14 08:53:35;;;;;;;12.90;9.57;;;;;;;22.47;100.00;100764.16;5072115;28;20894;-73
2021/05/14 08:56:01;;;;;;;11.90;9.50;;;;;;;22.48;100.00;100773.03;5071222;28;20553;-75
2021/05/14 08:58:28;;;;;;;13.33;9.90;;;;;;;22.32;100.00;100780.16;5068950;28;20176;-76
2021/05/14 09:00:54;;;;;;;10.97;9.80;;;;;;;22.19;100.00;100782.59;5067461;28;20431;-77
2021/05/14 09:03:20;;;;;;;12.47;9.63;;;;;;;22.08;100.00;100785.69;5070728;28;20521;-73
2021/05/14 09:05:49;;;;;;;9.03;8.13;;;;;;;21.98;100.00;100795.72;5071986;28;20165;-76
2021/05/14 09:08:25;;;;;;;9.93;8.10;;;;;;;21.98;100.00;100793.88;5071065;28;20426;-79
2021/05/14 09:10:51;;;;;;;9.73;8.37;;;;;;;22.14;100.00;100790.31;5065510;28;20425;-74
2021/05/14 09:13:16;;;;;;;12.50;7.50;;;;;;;22.35;100.00;100790.50;5070130;28;20402;-75
2021/05/14 09:15:44;;;;;;;9.60;7.80;;;;;;;22.66;100.00;100785.09;5069655;28;20263;-76
2021/05/14 09:18:20;;;;;;;9.53;7.20;;;;;;;23.21;100.00;100783.13;5069191;28;20202;-73
2021/05/14 09:20:57;;;;;;;8.43;6.87;;;;;;;23.68;100.00;100765.84;5056120;28;20438;-73
2021/05/14 09:23:27;;;;;;;7.10;6.37;;;;;;;23.99;100.00;100763.72;5070963;28;20453;-76
2021/05/14 09:25:53;;;;;;;10.13;6.50;;;;;;;23.93;100.00;100763.66;5065780;28;20441;-76
2021/05/14 09:28:47;;;;;;;7.13;5.90;;;;;;;23.78;100.00;100761.00;5069873;28;20407;-73
2021/05/14 09:31:15;;;;;;;9.50;6.00;;;;;;;23.68;100.00;100758.63;5043522;28;20446;-75
2021/05/14 09:33:44;;;;;;;7.57;6.10;;;;;;;23.64;100.00;100756.47;5066252;28;20417;-74
2021/05/14 09:36:13;;;;;;;6.80;6.10;;;;;;;23.51;100.00;100752.59;5059978;28;20458;-73
2021/05/14 09:38:44;;;;;;;9.30;6.80;;;;;;;23.37;100.00;100745.38;5069076;28;20505;-73
2021/05/14 09:41:33;;;;;;;12.63;7.03;;;;;;;23.46;100.00;100743.44;5069717;28;20952;-73
2021/05/14 09:44:05;;;;;;;7.70;4.93;;;;;;;23.57;100.00;100744.81;5069194;28;20525;-73
2021/05/14 09:46:36;;;;;;;6.30;4.37;;;;;;;23.75;100.00;100745.28;5069268;28;20444;-73
2021/05/14 09:49:07;;;;;;;13.13;5.83;;;;;;;23.66;100.00;100767.88;5068178;28;20490;-71
2021/05/14 09:51:34;;;;;;;37.00;8.07;;;;;;;23.33;100.00;100768.22;5071257;28;20425;-74
2021/05/14 09:54:25;;;;;;;10.20;5.40;;;;;;;22.84;100.00;100787.47;5065991;28;20943;-76
2021/05/14 09:59:44;;;;;;;7.67;5.43;;;;;;;22.59;100.00;100792.16;5063619;28;20480;-72
2021/05/14 10:02:21;;;;;;;12.17;5.97;;;;;;;22.58;100.00;100781.66;5069356;28;20445;-76
2021/05/14 10:04:47;;;;;;;11.20;5.60;;;;;;;22.47;100.00;100782.91;5069930;28;20441;-74
2021/05/14 10:07:14;;;;;;;9.00;5.27;;;;;;;22.57;100.00;100769.28;5070567;28;20421;-72
2021/05/14 10:09:40;;;;;;;9.23;5.50;;;;;;;22.66;100.00;100770.88;5057362;28;20438;-77
2021/05/14 10:12:17;;;;;;;9.80;5.33;;;;;;;22.71;100.00;100779.19;5068087;28;20415;-74
2021/05/14 10:14:44;;;;;;;7.57;4.83;;;;;;;22.48;100.00;100779.22;5061904;28;20426;-72
2021/05/14 10:17:11;;;;;;;8.00;5.13;;;;;;;22.32;100.00;100784.69;5065520;28;20568;-72
2021/05/14 10:19:37;;;;;;;5.70;4.80;;;;;;;22.31;100.00;100799.94;5069894;28;20419;-73
2021/05/14 10:22:05;;;;;;;8.33;4.77;;;;;;;22.76;100.00;100797.44;5068723;28;20438;-74
2021/05/14 10:24:41;;;;;;;11.60;8.30;;;;;;;22.99;100.00;100806.28;5064896;28;20418;-77
2021/05/14 10:27:19;;;;;;;5.53;4.43;;;;;;;23.02;100.00;100805.91;5059541;28;20807;-77
2021/05/14 10:29:47;;;;;;;5.80;4.70;;;;;;;23.12;100.00;100785.03;5066309;28;20426;-73
2021/05/14 10:32:13;;;;;;;7.83;4.83;;;;;;;23.03;100.00;100796.03;5068170;28;20945;-77
2021/05/14 10:34:39;;;;;;;8.20;3.97;;;;;;;23.07;100.00;100800.84;5070017;28;20781;-74
2021/05/14 10:37:05;;;;;;;5.47;4.03;;;;;;;23.03;100.00;100806.75;5069155;28;20461;-76
2021/05/14 10:39:41;;;;;;;7.90;5.17;;;;;;;22.90;100.00;100804.72;5064336;28;20459;-77
2021/05/14 10:42:13;;;;;;;8.80;4.80;;;;;;;22.69;100.00;100818.75;5068413;28;20179;-75
2021/05/14 10:44:51;;;;;;;7.80;4.67;;;;;;;22.17;100.00;100816.75;5070078;28;20410;-76
2021/05/14 10:47:25;;;;;;;6.77;4.70;;;;;;;22.30;100.00;100816.19;5067863;28;20403;-74
2021/05/14 10:50:11;;;;;;;6.03;4.57;;;;;;;22.31;100.00;100815.16;5066670;28;20414;-75
2021/05/14 10:53:14;;;;;;;8.80;6.00;;;;;;;22.12;100.00;100814.59;5066022;28;20430;-74
2021/05/14 10:55:40;;;;;;;14.07;5.87;;;;;;;22.01;100.00;100817.63;5067823;28;20843;-74
2021/05/14 10:58:06;;;;;;;8.00;5.03;;;;;;;22.02;100.00;100821.16;5071719;28;20927;-79
2021/05/14 11:00:35;;;;;;;8.83;5.00;;;;;;;22.23;100.00;100812.53;5069483;28;20210;-78
2021/05/14 11:03:21;;;;;;;6.30;4.40;;;;;;;22.18;100.00;100809.53;5073917;28;20541;-78
2021/05/14 11:05:52;;;;;;;8.13;5.73;;;;;;;22.08;100.00;100807.09;5063629;28;20870;-74
2021/05/14 11:08:33;;;;;;;12.20;6.00;;;;;;;21.97;100.00;100812.78;5065964;28;20422;-74
2021/05/14 11:11:00;;;;;;;7.80;4.90;;;;;;;21.85;100.00;100807.00;5066169;28;20417;-75
2021/05/14 11:13:47;;;;;;;7.50;4.93;;;;;;;22.15;100.00;100787.47;5068516;28;20839;-75